createdAt,value
2023-01-19T00:00:35.128Z,2.08
2023-01-19T00:03:04.159Z,2.15
2023-01-19T00:05:31.016Z,2.17
2023-01-19T00:08:14.482Z,2.03
2023-01-19T00:10:42.955Z,1.95
2023-01-19T00:13:09.711Z,1.30
2023-01-19T00:15:36.462Z,0.85
2023-01-19T00:18:03.248Z,1.00
2023-01-19T00:20:32.014Z,0.63
2023-01-19T00:22:59.201Z,0.50
2023-01-19T00:25:26.101Z,0.70
2023-01-19T00:27:52.751Z,0.60
2023-01-19T00:30:19.438Z,0.70
2023-01-19T00:32:46.098Z,0.60
2023-01-19T00:35:12.776Z,0.60
2023-01-19T00:37:41.505Z,0.70
2023-01-19T00:40:09.808Z,1.00
2023-01-19T00:42:44.335Z,0.73
2023-01-19T00:45:23.272Z,0.77
2023-01-19T00:47:57.321Z,0.90
2023-01-19T00:50:29.842Z,0.88
2023-01-19T00:53:01.089Z,1.55
2023-01-19T00:55:29.179Z,1.58
2023-01-19T00:57:56.698Z,1.80
2023-01-19T01:00:24.488Z,2.22
2023-01-19T01:02:52.887Z,2.65
2023-01-19T01:05:20.169Z,2.95
2023-01-19T01:07:49.452Z,3.00
2023-01-19T01:10:22.168Z,3.60
2023-01-19T01:12:56.421Z,3.30
2023-01-19T01:15:27.010Z,2.58
2023-01-19T01:17:54.341Z,1.98
2023-01-19T01:20:24.406Z,1.40
2023-01-19T01:22:53.350Z,1.40
2023-01-19T01:25:22.664Z,0.88
2023-01-19T01:27:50.053Z,0.93
2023-01-19T01:30:16.949Z,0.80
2023-01-19T01:32:43.740Z,1.00
2023-01-19T01:35:11.572Z,0.60
2023-01-19T01:37:38.918Z,0.63
2023-01-19T01:40:06.963Z,0.43
2023-01-19T01:42:34.713Z,0.30
2023-01-19T01:45:06.167Z,0.38
2023-01-19T01:47:39.346Z,0.28
2023-01-19T01:50:23.746Z,0.32
2023-01-19T01:53:05.986Z,0.30
2023-01-19T01:55:40.974Z,0.45
2023-01-19T01:58:09.845Z,0.20
2023-01-19T02:00:57.023Z,0.57
2023-01-19T02:03:25.284Z,0.28
2023-01-19T02:05:57.388Z,0.55
2023-01-19T02:08:53.106Z,0.25
2023-01-19T02:11:38.552Z,0.35
2023-01-19T02:14:06.570Z,0.43
2023-01-19T02:16:34.315Z,0.80
2023-01-19T02:19:01.221Z,0.60
2023-01-19T02:21:33.959Z,0.65
2023-01-19T02:24:03.063Z,0.65
2023-01-19T02:26:35.133Z,1.13
2023-01-19T02:29:11.749Z,0.82
2023-01-19T02:31:40.471Z,0.68
2023-01-19T02:34:10.066Z,1.00
2023-01-19T02:36:58.498Z,1.10
2023-01-19T02:39:41.187Z,1.15
2023-01-19T02:42:19.106Z,1.23
2023-01-19T02:44:48.631Z,0.73
2023-01-19T02:47:15.904Z,0.63
2023-01-19T02:49:42.938Z,0.80
2023-01-19T02:52:16.591Z,0.63
2023-01-19T02:55:01.060Z,0.60
2023-01-19T02:57:49.570Z,0.50
2023-01-19T03:00:28.599Z,0.40
2023-01-19T03:03:25.397Z,0.50
2023-01-19T03:06:11.913Z,0.80
2023-01-19T03:08:54.799Z,0.70
2023-01-19T03:11:24.944Z,0.35
2023-01-19T03:14:01.769Z,0.60
2023-01-19T03:16:50.438Z,0.40
2023-01-19T03:19:34.080Z,0.68
2023-01-19T03:22:10.580Z,0.50
2023-01-19T03:24:40.437Z,0.52
2023-01-19T03:27:19.900Z,0.77
2023-01-19T03:29:57.800Z,0.40
2023-01-19T03:32:31.183Z,0.40
2023-01-19T03:35:02.673Z,0.47
2023-01-19T03:37:31.697Z,0.32
2023-01-19T03:39:58.576Z,0.50
2023-01-19T03:42:27.465Z,0.57
2023-01-19T03:44:56.510Z,0.43
2023-01-19T03:47:25.113Z,0.38
2023-01-19T03:49:53.200Z,0.60
2023-01-19T03:52:32.531Z,0.40
2023-01-19T03:55:04.541Z,0.65
2023-01-19T03:57:31.989Z,0.85
2023-01-19T03:59:58.911Z,0.85
2023-01-19T04:02:25.712Z,0.93
2023-01-19T04:04:52.445Z,0.52
2023-01-19T04:07:19.146Z,0.57
2023-01-19T04:09:45.767Z,0.77
2023-01-19T04:12:12.486Z,0.50
2023-01-19T04:14:39.112Z,0.75
2023-01-19T04:17:05.778Z,0.45
2023-01-19T04:19:32.667Z,0.50
2023-01-19T04:21:59.697Z,0.52
2023-01-19T04:24:27.407Z,0.30
2023-01-19T04:26:54.130Z,0.60
2023-01-19T04:29:20.924Z,0.40
2023-01-19T04:31:47.598Z,0.65
2023-01-19T04:34:14.384Z,0.40
2023-01-19T04:36:41.036Z,0.60
2023-01-19T04:39:09.168Z,0.65
2023-01-19T04:41:36.017Z,0.50
2023-01-19T04:44:02.902Z,0.65
2023-01-19T04:46:29.638Z,1.02
2023-01-19T04:48:56.336Z,0.77
2023-01-19T04:51:23.019Z,0.70
2023-01-19T04:53:49.714Z,0.95
2023-01-19T04:56:16.401Z,0.65
2023-01-19T04:58:43.044Z,0.50
2023-01-19T05:01:09.932Z,0.90
2023-01-19T05:03:36.719Z,0.95
2023-01-19T05:06:03.446Z,0.90
2023-01-19T05:08:31.031Z,1.10
2023-01-19T05:10:57.934Z,1.05
2023-01-19T05:13:24.671Z,0.90
2023-01-19T05:15:51.457Z,0.90
2023-01-19T05:18:18.580Z,1.00
2023-01-19T05:20:45.224Z,1.45
2023-01-19T05:23:11.851Z,1.35
2023-01-19T05:25:38.556Z,1.40
2023-01-19T05:28:05.232Z,1.20
2023-01-19T05:30:32.113Z,1.77
2023-01-19T05:32:59.226Z,1.50
2023-01-19T05:35:35.329Z,1.23
2023-01-19T05:38:02.716Z,1.35
2023-01-19T05:40:29.509Z,1.60
2023-01-19T05:43:00.672Z,1.33
2023-01-19T05:45:28.785Z,1.55
2023-01-19T05:47:55.766Z,1.15
2023-01-19T05:50:22.689Z,1.35
2023-01-19T05:52:49.469Z,1.23
2023-01-19T05:55:16.590Z,1.35
2023-01-19T05:57:43.428Z,1.45
2023-01-19T06:00:10.871Z,1.50
2023-01-19T06:02:37.654Z,1.38
2023-01-19T06:05:04.689Z,1.38
2023-01-19T06:07:31.919Z,1.15
2023-01-19T06:09:58.786Z,1.10
2023-01-19T06:12:25.434Z,1.38
2023-01-19T06:14:53.289Z,1.05
2023-01-19T06:17:20.545Z,1.45
2023-01-19T06:19:47.202Z,1.15
2023-01-19T06:22:15.943Z,1.73
2023-01-19T06:24:42.560Z,1.33
2023-01-19T06:27:09.549Z,2.33
2023-01-19T06:29:36.320Z,2.13
2023-01-19T06:32:03.206Z,1.60
2023-01-19T06:34:30.017Z,1.92
2023-01-19T06:36:58.891Z,1.75
2023-01-19T06:39:30.291Z,1.85
2023-01-19T06:41:56.936Z,2.22
2023-01-19T06:44:23.572Z,2.05
2023-01-19T06:46:50.409Z,1.70
2023-01-19T06:49:17.334Z,1.77
2023-01-19T06:51:44.012Z,1.13
2023-01-19T06:54:10.891Z,3.13
2023-01-19T06:56:37.602Z,3.88
2023-01-19T06:59:05.212Z,3.65
2023-01-19T07:01:32.741Z,3.70
2023-01-19T07:04:00.052Z,2.25
2023-01-19T07:06:26.794Z,1.92
2023-01-19T07:08:54.429Z,1.73
2023-01-19T07:11:25.565Z,1.80
2023-01-19T07:13:57.907Z,1.63
2023-01-19T07:16:24.968Z,1.50
2023-01-19T07:18:51.686Z,1.42
2023-01-19T07:21:19.128Z,1.30
2023-01-19T07:23:49.069Z,1.48
2023-01-19T07:26:18.569Z,1.60
2023-01-19T07:28:47.504Z,1.75
2023-01-19T07:31:15.837Z,3.70
2023-01-19T07:33:42.691Z,1.23
2023-01-19T07:36:10.049Z,1.30
2023-01-19T07:38:36.730Z,1.75
2023-01-19T07:41:08.286Z,1.30
2023-01-19T07:43:37.090Z,1.33
2023-01-19T07:46:06.017Z,1.60
2023-01-19T07:48:32.831Z,2.00
2023-01-19T07:51:01.523Z,1.77
2023-01-19T07:53:29.361Z,1.40
2023-01-19T07:55:56.975Z,1.52
2023-01-19T07:58:24.947Z,1.50
2023-01-19T08:01:06.633Z,2.10
2023-01-19T08:03:48.853Z,2.20
2023-01-19T08:06:31.650Z,2.30
2023-01-19T08:08:58.402Z,2.22
2023-01-19T08:11:25.185Z,2.78
2023-01-19T08:13:51.860Z,2.88
2023-01-19T08:16:18.976Z,2.30
2023-01-19T08:18:45.905Z,2.60
2023-01-19T08:21:12.598Z,2.67
2023-01-19T08:23:39.440Z,3.88
2023-01-19T08:26:20.015Z,2.55
2023-01-19T08:31:20.933Z,1.60
2023-01-19T08:33:49.516Z,2.15
2023-01-19T08:36:16.586Z,1.92
2023-01-19T08:38:45.541Z,1.90
2023-01-19T08:41:13.259Z,2.50
2023-01-19T08:43:40.045Z,1.95
2023-01-19T08:46:06.870Z,1.80
2023-01-19T08:48:33.788Z,1.98
2023-01-19T08:51:00.625Z,2.45
2023-01-19T08:53:27.378Z,1.80
2023-01-19T08:56:00.085Z,2.25
2023-01-19T08:58:27.184Z,2.00
2023-01-19T09:00:54.746Z,2.25
2023-01-19T09:03:22.765Z,2.20
2023-01-19T09:05:50.385Z,1.95
2023-01-19T09:08:17.414Z,1.80
2023-01-19T09:10:51.768Z,2.30
2023-01-19T09:13:19.938Z,2.25
2023-01-19T09:15:46.677Z,2.35
2023-01-19T09:18:18.305Z,1.92
2023-01-19T09:20:47.409Z,1.83
2023-01-19T09:23:16.766Z,1.33
2023-01-19T09:25:45.517Z,2.35
2023-01-19T09:28:14.786Z,1.80
2023-01-19T09:30:42.955Z,1.63
2023-01-19T09:33:15.761Z,1.85
2023-01-19T09:35:45.340Z,1.38
2023-01-19T09:38:13.104Z,1.53
2023-01-19T09:40:54.336Z,1.52
2023-01-19T09:43:32.863Z,2.20
2023-01-19T09:46:02.653Z,1.40
2023-01-19T09:48:45.766Z,2.78
2023-01-19T09:51:16.738Z,1.25
2023-01-19T09:53:52.504Z,1.83
2023-01-19T09:56:21.084Z,1.35
2023-01-19T09:58:51.997Z,1.65
2023-01-19T10:01:52.572Z,1.88
2023-01-19T10:07:28.345Z,1.30
2023-01-19T10:09:57.968Z,1.52
2023-01-19T10:13:01.468Z,1.60
2023-01-19T10:15:47.356Z,1.35
2023-01-19T10:18:33.159Z,1.60
2023-01-19T10:21:05.726Z,1.63
2023-01-19T10:24:00.028Z,1.98
2023-01-19T10:26:33.899Z,2.10
2023-01-19T10:29:12.102Z,1.83
2023-01-19T10:31:42.121Z,1.73
2023-01-19T10:34:20.352Z,1.80
2023-01-19T10:36:50.518Z,1.92
2023-01-19T10:39:19.086Z,1.80
2023-01-19T10:41:53.508Z,1.45
2023-01-19T10:44:38.603Z,1.48
2023-01-19T10:47:11.619Z,1.25
2023-01-19T10:49:42.563Z,1.20
2023-01-19T10:52:36.403Z,1.15
2023-01-19T10:55:05.639Z,2.28
2023-01-19T10:57:37.693Z,1.20
2023-01-19T11:00:06.806Z,1.17
2023-01-19T11:02:33.815Z,1.20
2023-01-19T11:05:20.961Z,1.25
2023-01-19T11:07:48.714Z,1.20
2023-01-19T11:10:24.105Z,1.40
2023-01-19T11:13:07.433Z,1.30
2023-01-19T11:15:43.560Z,1.30
2023-01-19T11:18:24.449Z,1.50
2023-01-19T11:20:54.219Z,0.60
2023-01-19T11:23:28.740Z,1.63
2023-01-19T11:25:58.797Z,1.05
2023-01-19T11:28:32.783Z,1.00
2023-01-19T11:31:02.640Z,0.82
2023-01-19T11:33:50.809Z,1.25
2023-01-19T11:36:23.124Z,1.20
2023-01-19T11:38:52.931Z,1.25
2023-01-19T11:41:30.418Z,1.17
2023-01-19T11:44:02.796Z,1.88
2023-01-19T11:46:34.252Z,1.73
2023-01-19T11:49:06.298Z,0.77
2023-01-19T11:51:42.588Z,1.10
2023-01-19T11:54:20.588Z,1.10
2023-01-19T11:56:49.300Z,0.98
2023-01-19T11:59:16.173Z,0.93
2023-01-19T12:01:54.698Z,0.65
2023-01-19T12:04:30.849Z,1.30
2023-01-19T12:07:00.142Z,1.50
2023-01-19T12:09:30.994Z,0.98
2023-01-19T12:12:04.189Z,0.55
2023-01-19T12:14:47.859Z,0.80
2023-01-19T12:17:25.919Z,0.90
2023-01-19T12:20:06.537Z,1.45
2023-01-19T12:25:22.220Z,1.05
2023-01-19T12:27:50.304Z,0.90
2023-01-19T12:30:21.629Z,1.45
2023-01-19T12:32:48.628Z,0.65
2023-01-19T12:35:53.297Z,0.82
2023-01-19T12:38:35.001Z,0.80
2023-01-19T12:41:30.684Z,1.40
2023-01-19T12:44:25.554Z,1.08
2023-01-19T12:47:04.225Z,0.82
2023-01-19T12:49:38.699Z,1.00
2023-01-19T12:52:14.179Z,0.80
2023-01-19T12:54:54.752Z,0.75
2023-01-19T13:00:08.189Z,0.75
2023-01-19T13:02:47.130Z,0.70
2023-01-19T13:05:21.480Z,1.10
2023-01-19T13:08:06.644Z,0.82
2023-01-19T13:11:13.719Z,0.73
2023-01-19T13:14:06.288Z,0.75
2023-01-19T13:16:35.819Z,0.60
2023-01-19T13:19:17.606Z,1.00
2023-01-19T13:21:47.603Z,0.80
2023-01-19T13:24:17.469Z,0.85
2023-01-19T13:26:50.109Z,0.80
2023-01-19T13:29:41.282Z,0.70
2023-01-19T13:32:17.611Z,0.90
2023-01-19T13:34:59.562Z,1.35
2023-01-19T13:37:37.059Z,0.82
2023-01-19T13:40:04.214Z,1.02
2023-01-19T13:42:38.446Z,0.40
2023-01-19T13:45:26.543Z,1.05
2023-01-19T13:47:55.381Z,0.77
2023-01-19T13:50:25.149Z,0.93
2023-01-19T13:52:54.072Z,0.68
2023-01-19T13:55:21.486Z,1.00
2023-01-19T13:57:50.076Z,1.00
2023-01-19T14:00:27.334Z,0.68
2023-01-19T14:03:13.006Z,0.93
2023-01-19T14:05:41.827Z,1.10
2023-01-19T14:08:12.909Z,0.70
2023-01-19T14:10:47.051Z,0.90
2023-01-19T14:13:26.276Z,0.80
2023-01-19T14:15:56.937Z,0.88
2023-01-19T14:18:26.562Z,1.00
2023-01-19T14:21:11.890Z,0.80
2023-01-19T14:24:32.968Z,0.80
2023-01-19T14:27:24.448Z,1.00
2023-01-19T14:29:53.778Z,0.93
2023-01-19T14:32:24.964Z,0.88
2023-01-19T14:35:04.402Z,1.00
2023-01-19T14:37:37.195Z,1.03
2023-01-19T14:40:13.085Z,1.00
2023-01-19T14:43:03.186Z,1.20
2023-01-19T14:45:41.306Z,1.00
2023-01-19T14:48:19.207Z,1.20
2023-01-19T14:51:01.967Z,1.08
2023-01-19T14:53:36.927Z,0.98
2023-01-19T14:56:05.933Z,1.20
2023-01-19T14:58:35.114Z,0.90
2023-01-19T15:01:02.284Z,1.30
2023-01-19T15:03:44.417Z,1.20
2023-01-19T15:06:21.190Z,1.40
2023-01-19T15:08:50.123Z,1.25
2023-01-19T15:11:23.592Z,1.05
2023-01-19T15:13:53.335Z,1.23
2023-01-19T15:16:20.492Z,1.13
2023-01-19T15:18:47.235Z,1.13
2023-01-19T15:21:16.539Z,1.10
2023-01-19T15:23:43.445Z,1.08
2023-01-19T15:26:17.606Z,1.70
2023-01-19T15:28:46.054Z,1.20
2023-01-19T15:31:24.698Z,1.15
2023-01-19T15:33:51.544Z,1.00
2023-01-19T15:36:20.962Z,1.10
2023-01-19T15:38:50.810Z,1.25
2023-01-19T15:41:26.345Z,0.93
2023-01-19T15:43:53.290Z,3.10
2023-01-19T15:46:20.888Z,1.67
2023-01-19T15:48:49.112Z,1.30
2023-01-19T15:51:18.249Z,1.13
2023-01-19T15:53:45.192Z,1.27
2023-01-19T15:56:16.475Z,1.00
2023-01-19T15:58:43.727Z,1.70
2023-01-19T16:01:13.944Z,1.80
2023-01-19T16:03:41.189Z,1.48
2023-01-19T16:06:08.532Z,1.55
2023-01-19T16:08:37.521Z,1.30
2023-01-19T16:11:08.449Z,1.30
2023-01-19T16:13:35.147Z,1.67
2023-01-19T16:16:07.095Z,1.80
2023-01-19T16:18:34.253Z,1.70
2023-01-19T16:21:01.491Z,1.70
2023-01-19T16:23:28.464Z,1.98
2023-01-19T16:26:00.310Z,1.70
2023-01-19T16:28:27.672Z,3.40
2023-01-19T16:30:56.192Z,1.85
2023-01-19T16:33:23.039Z,7.07
2023-01-19T16:35:50.478Z,2.83
2023-01-19T16:38:17.223Z,2.42
2023-01-19T16:40:47.051Z,4.35
2023-01-19T16:43:15.216Z,6.93
2023-01-19T16:46:02.719Z,7.57
2023-01-19T16:48:30.099Z,5.28
2023-01-19T16:51:05.241Z,3.17
2023-01-19T16:53:36.932Z,2.17
2023-01-19T16:56:12.134Z,2.28
2023-01-19T16:58:39.483Z,5.97
2023-01-19T17:01:11.752Z,11.10
2023-01-19T17:03:39.602Z,4.75
2023-01-19T17:06:07.599Z,14.95
2023-01-19T17:08:35.571Z,27.17
2023-01-19T17:11:07.749Z,43.05
2023-01-19T17:13:34.583Z,24.95
2023-01-19T17:16:02.511Z,21.00
2023-01-19T17:18:32.525Z,20.38
2023-01-19T17:21:03.607Z,11.02
2023-01-19T17:23:31.148Z,5.78
2023-01-19T17:25:58.555Z,2.00
2023-01-19T17:28:25.968Z,1.60
2023-01-19T17:30:53.265Z,1.80
2023-01-19T17:33:22.108Z,1.00
2023-01-19T17:35:49.363Z,1.20
2023-01-19T17:38:16.522Z,1.70
2023-01-19T17:40:43.264Z,1.70
2023-01-19T17:43:10.022Z,1.52
2023-01-19T17:45:37.278Z,3.58
2023-01-19T17:48:04.984Z,4.72
2023-01-19T17:50:34.768Z,5.05
2023-01-19T17:53:01.725Z,3.33
2023-01-19T17:55:28.709Z,2.70
2023-01-19T17:57:55.431Z,2.20
2023-01-19T18:00:22.449Z,1.33
2023-01-19T18:02:51.568Z,1.40
2023-01-19T18:05:19.860Z,2.50
2023-01-19T18:07:47.476Z,2.45
2023-01-19T18:10:14.570Z,2.20
2023-01-19T18:12:41.766Z,1.75
2023-01-19T18:15:09.616Z,1.83
2023-01-19T18:17:36.404Z,2.60
2023-01-19T18:20:04.485Z,3.92
2023-01-19T18:22:32.166Z,7.43
2023-01-19T18:24:59.111Z,6.70
2023-01-19T18:27:26.025Z,5.78
2023-01-19T18:29:52.726Z,8.45
2023-01-19T18:32:21.076Z,7.22
2023-01-19T18:34:54.282Z,8.40
2023-01-19T18:37:21.148Z,6.20
2023-01-19T18:39:47.922Z,4.60
2023-01-19T18:42:14.694Z,3.70
2023-01-19T18:44:41.530Z,3.60
2023-01-19T18:47:08.292Z,3.03
2023-01-19T18:49:34.977Z,3.47
2023-01-19T18:52:03.759Z,4.10
2023-01-19T18:54:30.522Z,2.78
2023-01-19T18:56:57.211Z,2.17
2023-01-19T18:59:23.948Z,2.42
2023-01-19T19:01:50.642Z,2.55
2023-01-19T19:04:17.388Z,2.40
2023-01-19T19:06:44.123Z,2.20
2023-01-19T19:09:10.899Z,2.28
2023-01-19T19:11:37.670Z,1.80
2023-01-19T19:14:04.404Z,2.25
2023-01-19T19:16:33.985Z,2.50
2023-01-19T19:19:01.935Z,2.05
2023-01-19T19:21:28.700Z,1.73
2023-01-19T19:23:57.406Z,2.00
2023-01-19T19:26:25.589Z,2.83
2023-01-19T19:28:52.305Z,2.45
2023-01-19T19:31:21.353Z,1.50
2023-01-19T19:33:50.951Z,1.92
2023-01-19T19:36:18.370Z,1.90
2023-01-19T19:38:47.468Z,1.52
2023-01-19T19:41:16.826Z,1.50
2023-01-19T19:43:43.640Z,1.00
2023-01-19T19:46:12.857Z,1.10
2023-01-19T19:48:40.124Z,1.08
2023-01-19T19:51:23.672Z,1.10
2023-01-19T19:53:52.467Z,1.50
2023-01-19T19:56:21.450Z,2.03
2023-01-19T19:58:49.158Z,1.10
2023-01-19T20:01:19.222Z,7.70
2023-01-19T20:03:46.500Z,2.92
2023-01-19T20:06:16.300Z,1.80
2023-01-19T20:08:43.815Z,2.20
2023-01-19T20:11:13.084Z,1.85
2023-01-19T20:13:41.684Z,2.33
2023-01-19T20:16:11.588Z,1.80
2023-01-19T20:18:43.798Z,1.60
2023-01-19T20:21:17.828Z,1.88
2023-01-19T20:23:46.079Z,2.08
2023-01-19T20:26:14.839Z,2.20
2023-01-19T20:28:42.058Z,3.60
2023-01-19T20:31:10.157Z,3.97
2023-01-19T20:33:37.286Z,1.85
2023-01-19T20:36:04.536Z,1.60
2023-01-19T20:38:32.130Z,4.05
2023-01-19T20:40:59.104Z,2.75
2023-01-19T20:43:25.784Z,2.55
2023-01-19T20:45:52.830Z,2.30
2023-01-19T20:48:19.522Z,3.38
2023-01-19T20:50:47.315Z,2.13
2023-01-19T20:53:15.098Z,1.50
2023-01-19T20:55:43.789Z,1.25
2023-01-19T20:58:17.934Z,1.70
2023-01-19T21:00:46.112Z,1.30
2023-01-19T21:03:12.917Z,1.60
2023-01-19T21:05:39.784Z,2.22
2023-01-19T21:08:06.611Z,1.90
2023-01-19T21:10:33.271Z,1.27
2023-01-19T21:13:00.003Z,1.23
2023-01-19T21:15:26.744Z,1.20
2023-01-19T21:17:53.570Z,1.75
2023-01-19T21:20:20.511Z,1.45
2023-01-19T21:22:47.204Z,1.45
2023-01-19T21:25:15.261Z,1.40
2023-01-19T21:27:42.069Z,1.23
2023-01-19T21:30:09.406Z,1.10
2023-01-19T21:32:36.063Z,1.40
2023-01-19T21:35:02.774Z,1.33
2023-01-19T21:37:30.713Z,1.83
2023-01-19T21:39:57.569Z,1.60
2023-01-19T21:42:24.259Z,1.52
2023-01-19T21:44:51.012Z,2.10
2023-01-19T21:47:17.710Z,2.50
2023-01-19T21:49:44.426Z,2.88
2023-01-19T21:52:11.137Z,2.70
2023-01-19T21:54:37.809Z,3.00
2023-01-19T21:57:04.503Z,3.30
2023-01-19T21:59:31.266Z,4.05
2023-01-19T22:01:58.106Z,3.42
2023-01-19T22:04:24.959Z,3.97
2023-01-19T22:06:51.697Z,4.18
2023-01-19T22:09:18.363Z,4.68
2023-01-19T22:11:45.014Z,5.15
2023-01-19T22:14:11.764Z,5.78
2023-01-19T22:16:38.477Z,5.90
2023-01-19T22:19:07.633Z,5.32
2023-01-19T22:21:35.883Z,4.95
2023-01-19T22:24:04.597Z,5.90
2023-01-19T22:26:33.992Z,5.85
2023-01-19T22:29:02.402Z,6.38
2023-01-19T22:31:30.582Z,6.53
2023-01-19T22:33:57.846Z,6.90
2023-01-19T22:36:27.022Z,7.40
2023-01-19T22:38:54.730Z,7.57
2023-01-19T22:41:25.443Z,7.65
2023-01-19T22:44:03.364Z,7.70
2023-01-19T22:46:32.259Z,7.60
2023-01-19T22:48:59.421Z,8.00
2023-01-19T22:51:27.283Z,8.05
2023-01-19T22:53:54.181Z,8.20
2023-01-19T22:56:26.755Z,8.27
2023-01-19T22:58:54.208Z,7.82
2023-01-19T23:01:35.390Z,8.77
2023-01-19T23:04:04.281Z,8.50
2023-01-19T23:06:34.116Z,7.80
2023-01-19T23:09:04.919Z,7.35
2023-01-19T23:11:37.614Z,7.60
2023-01-19T23:14:07.258Z,6.45
2023-01-19T23:16:34.439Z,6.20
2023-01-19T23:19:01.238Z,6.88
2023-01-19T23:21:29.954Z,6.40
2023-01-19T23:23:59.512Z,6.25
2023-01-19T23:26:27.036Z,6.63
2023-01-19T23:28:59.576Z,6.03
2023-01-19T23:31:29.541Z,6.35
2023-01-19T23:33:58.613Z,6.45
2023-01-19T23:36:30.553Z,6.00
2023-01-19T23:39:00.445Z,5.45
2023-01-19T23:41:29.188Z,5.25
2023-01-19T23:43:55.968Z,5.45
2023-01-19T23:46:22.894Z,5.30
2023-01-19T23:48:49.979Z,6.18
2023-01-19T23:51:19.998Z,5.20
2023-01-19T23:53:47.090Z,5.25
2023-01-19T23:56:19.575Z,5.60
2023-01-19T23:58:57.572Z,5.60
